To NAV CANADA Home Page Login to a new session Search on AWWS site Feedback and Comments Disclaimer Vers la page française équivalente Tips FAQ What's new on the site To the Forecasts and Observations / NOTAM section To "File a Flight Plan" website Publications and other links Update of the User's profile FIC Telephone Numbers My Weather Data Folder Route Weather Data Regional Weather Data Local Weather Data To the Forecasts and Observations / NOTAM section
Request Generated 08/22/2017 at 01:44:25 UTC . Weather information available at that time is displayed.

METAR/TAF

FREDERICTON INTL/NB    (show WxCam)

METAR CYFC 220100Z AUTO 22007KT 9SM CLR 20/17 A2994 RMK SLP141
DENSITY ALT 600FT=
METAR CYFC 220000Z AUTO 20006KT 9SM CLR 21/18 A2993 RMK SLP136
DENSITY ALT 800FT=
METAR CYFC 212300Z AUTO 23007KT 9SM CLR 24/18 A2993 RMK SLP136
DENSITY ALT 1100FT=

TAF CYFC 212338Z 2200/2212 24005KT P6SM SKC
FM220900 VRB03KT P6SM SCT050
RMK FCST BASED ON AUTO OBS. NXT FCST BY 220600Z=
Your time UTC time
Weather data provided by Environment Canada and NAV CANADA